sensor_id;sensor_type;location;lat;lon;timestamp;P1;durP1;ratioP1;P2;durP2;ratioP2
33862;SDS011;20158;51.436;-2.742;2023-05-10T00:01:39;11.55;;;8.32;;
33862;SDS011;20158;51.436;-2.742;2023-05-10T00:04:05;15.43;;;7.88;;
33862;SDS011;20158;51.436;-2.742;2023-05-10T00:06:31;12.02;;;7.75;;
33862;SDS011;20158;51.436;-2.742;2023-05-10T00:08:57;14.82;;;7.10;;
33862;SDS011;20158;51.436;-2.742;2023-05-10T00:11:24;13.75;;;8.57;;
33862;SDS011;20158;51.436;-2.742;2023-05-10T00:13:50;13.95;;;8.05;;
33862;SDS011;20158;51.436;-2.742;2023-05-10T00:16:15;13.80;;;7.80;;
33862;SDS011;20158;51.436;-2.742;2023-05-10T00:18:42;12.85;;;8.27;;
33862;SDS011;20158;51.436;-2.742;2023-05-10T00:21:07;15.13;;;8.73;;
33862;SDS011;20158;51.436;-2.742;2023-05-10T00:23:33;19.27;;;8.88;;
33862;SDS011;20158;51.436;-2.742;2023-05-10T00:25:59;15.35;;;8.55;;
33862;SDS011;20158;51.436;-2.742;2023-05-10T00:28:26;15.30;;;8.80;;
33862;SDS011;20158;51.436;-2.742;2023-05-10T00:30:53;13.32;;;8.77;;
33862;SDS011;20158;51.436;-2.742;2023-05-10T00:33:19;12.18;;;8.00;;
33862;SDS011;20158;51.436;-2.742;2023-05-10T00:35:46;9.45;;;7.18;;
33862;SDS011;20158;51.436;-2.742;2023-05-10T00:38:12;12.57;;;8.27;;
33862;SDS011;20158;51.436;-2.742;2023-05-10T00:40:40;12.73;;;8.60;;
33862;SDS011;20158;51.436;-2.742;2023-05-10T00:45:39;15.23;;;8.45;;
33862;SDS011;20158;51.436;-2.742;2023-05-10T00:48:06;17.95;;;8.95;;
33862;SDS011;20158;51.436;-2.742;2023-05-10T00:50:32;12.35;;;8.57;;
33862;SDS011;20158;51.436;-2.742;2023-05-10T00:52:59;13.80;;;9.25;;
33862;SDS011;20158;51.436;-2.742;2023-05-10T00:55:26;16.02;;;9.82;;
33862;SDS011;20158;51.436;-2.742;2023-05-10T00:57:52;15.35;;;9.90;;
33862;SDS011;20158;51.436;-2.742;2023-05-10T01:00:18;13.48;;;8.82;;
33862;SDS011;20158;51.436;-2.742;2023-05-10T01:02:45;12.00;;;7.70;;
33862;SDS011;20158;51.436;-2.742;2023-05-10T01:05:12;12.05;;;8.30;;
33862;SDS011;20158;51.436;-2.742;2023-05-10T01:07:38;18.17;;;10.13;;
33862;SDS011;20158;51.436;-2.742;2023-05-10T01:10:07;11.93;;;9.27;;
33862;SDS011;20158;51.436;-2.742;2023-05-10T01:12:40;12.93;;;8.85;;
33862;SDS011;20158;51.436;-2.742;2023-05-10T01:15:07;12.68;;;9.18;;
33862;SDS011;20158;51.436;-2.742;2023-05-10T01:17:37;12.38;;;9.05;;
33862;SDS011;20158;51.436;-2.742;2023-05-10T01:20:06;11.57;;;8.77;;
33862;SDS011;20158;51.436;-2.742;2023-05-10T01:36:38;13.18;;;8.77;;
33862;SDS011;20158;51.436;-2.742;2023-05-10T01:39:15;11.90;;;8.30;;
33862;SDS011;20158;51.436;-2.742;2023-05-10T01:42:25;9.65;;;8.10;;
33862;SDS011;20158;51.436;-2.742;2023-05-10T01:47:27;11.60;;;8.95;;
33862;SDS011;20158;51.436;-2.742;2023-05-10T01:49:55;11.20;;;7.93;;
33862;SDS011;20158;51.436;-2.742;2023-05-10T01:52:25;14.05;;;8.25;;
33862;SDS011;20158;51.436;-2.742;2023-05-10T01:54:56;11.95;;;8.35;;
33862;SDS011;20158;51.436;-2.742;2023-05-10T01:57:30;12.20;;;7.88;;
33862;SDS011;20158;51.436;-2.742;2023-05-10T01:59:59;10.52;;;7.15;;
33862;SDS011;20158;51.436;-2.742;2023-05-10T02:02:40;14.40;;;8.13;;
33862;SDS011;20158;51.436;-2.742;2023-05-10T02:05:11;13.02;;;7.45;;
33862;SDS011;20158;51.436;-2.742;2023-05-10T02:07:39;10.35;;;6.97;;
33862;SDS011;20158;51.436;-2.742;2023-05-10T02:10:06;10.73;;;7.07;;
33862;SDS011;20158;51.436;-2.742;2023-05-10T02:12:35;12.95;;;7.32;;
33862;SDS011;20158;51.436;-2.742;2023-05-10T02:15:04;11.02;;;7.20;;
33862;SDS011;20158;51.436;-2.742;2023-05-10T02:17:32;10.77;;;8.43;;
33862;SDS011;20158;51.436;-2.742;2023-05-10T02:19:59;12.23;;;7.50;;
33862;SDS011;20158;51.436;-2.742;2023-05-10T02:22:27;17.30;;;9.93;;
33862;SDS011;20158;51.436;-2.742;2023-05-10T02:24:57;12.15;;;7.65;;
33862;SDS011;20158;51.436;-2.742;2023-05-10T02:27:23;11.98;;;8.05;;
33862;SDS011;20158;51.436;-2.742;2023-05-10T02:29:52;11.85;;;9.63;;
33862;SDS011;20158;51.436;-2.742;2023-05-10T02:32:21;12.38;;;8.68;;
33862;SDS011;20158;51.436;-2.742;2023-05-10T02:34:49;9.35;;;7.18;;
33862;SDS011;20158;51.436;-2.742;2023-05-10T02:37:18;16.42;;;8.95;;
33862;SDS011;20158;51.436;-2.742;2023-05-10T02:39:46;9.02;;;6.53;;
33862;SDS011;20158;51.436;-2.742;2023-05-10T02:42:14;12.18;;;8.02;;
33862;SDS011;20158;51.436;-2.742;2023-05-10T02:44:43;11.10;;;7.15;;
33862;SDS011;20158;51.436;-2.742;2023-05-10T02:47:14;10.57;;;7.82;;
33862;SDS011;20158;51.436;-2.742;2023-05-10T02:49:40;11.52;;;7.70;;
33862;SDS011;20158;51.436;-2.742;2023-05-10T02:52:07;11.60;;;7.28;;
33862;SDS011;20158;51.436;-2.742;2023-05-10T02:54:39;11.85;;;7.10;;
33862;SDS011;20158;51.436;-2.742;2023-05-10T02:57:11;12.15;;;7.10;;
33862;SDS011;20158;51.436;-2.742;2023-05-10T02:59:43;13.85;;;7.72;;
33862;SDS011;20158;51.436;-2.742;2023-05-10T03:02:10;11.25;;;6.50;;
33862;SDS011;20158;51.436;-2.742;2023-05-10T03:04:38;14.10;;;8.00;;
33862;SDS011;20158;51.436;-2.742;2023-05-10T03:07:04;11.07;;;6.60;;
33862;SDS011;20158;51.436;-2.742;2023-05-10T03:09:30;13.80;;;7.40;;
33862;SDS011;20158;51.436;-2.742;2023-05-10T03:12:00;9.95;;;6.32;;
33862;SDS011;20158;51.436;-2.742;2023-05-10T03:17:30;14.60;;;7.80;;
33862;SDS011;20158;51.436;-2.742;2023-05-10T03:20:08;13.93;;;7.43;;
33862;SDS011;20158;51.436;-2.742;2023-05-10T03:22:47;11.80;;;8.10;;
33862;SDS011;20158;51.436;-2.742;2023-05-10T03:25:17;12.77;;;6.07;;
33862;SDS011;20158;51.436;-2.742;2023-05-10T03:27:46;11.82;;;5.97;;
33862;SDS011;20158;51.436;-2.742;2023-05-10T03:30:12;16.65;;;7.72;;
33862;SDS011;20158;51.436;-2.742;2023-05-10T03:32:40;13.32;;;6.72;;
33862;SDS011;20158;51.436;-2.742;2023-05-10T03:35:07;13.35;;;6.30;;
33862;SDS011;20158;51.436;-2.742;2023-05-10T03:37:34;9.88;;;6.07;;
33862;SDS011;20158;51.436;-2.742;2023-05-10T03:40:01;14.05;;;6.10;;
33862;SDS011;20158;51.436;-2.742;2023-05-10T03:42:29;13.38;;;6.45;;
33862;SDS011;20158;51.436;-2.742;2023-05-10T03:44:55;14.20;;;6.55;;
33862;SDS011;20158;51.436;-2.742;2023-05-10T03:47:21;17.90;;;7.78;;
33862;SDS011;20158;51.436;-2.742;2023-05-10T03:49:47;15.52;;;6.63;;
33862;SDS011;20158;51.436;-2.742;2023-05-10T03:52:13;16.25;;;6.47;;
33862;SDS011;20158;51.436;-2.742;2023-05-10T03:54:39;14.55;;;7.40;;
33862;SDS011;20158;51.436;-2.742;2023-05-10T03:57:05;12.95;;;7.55;;
33862;SDS011;20158;51.436;-2.742;2023-05-10T03:59:31;16.80;;;7.32;;
33862;SDS011;20158;51.436;-2.742;2023-05-10T04:01:57;15.95;;;7.72;;
33862;SDS011;20158;51.436;-2.742;2023-05-10T04:04:23;14.35;;;8.07;;
33862;SDS011;20158;51.436;-2.742;2023-05-10T04:06:49;14.57;;;6.88;;
33862;SDS011;20158;51.436;-2.742;2023-05-10T04:09:15;13.13;;;6.20;;
33862;SDS011;20158;51.436;-2.742;2023-05-10T04:11:42;14.23;;;6.55;;
33862;SDS011;20158;51.436;-2.742;2023-05-10T04:14:08;18.17;;;7.90;;
33862;SDS011;20158;51.436;-2.742;2023-05-10T04:16:34;14.45;;;6.90;;
33862;SDS011;20158;51.436;-2.742;2023-05-10T04:19:00;18.23;;;8.52;;
33862;SDS011;20158;51.436;-2.742;2023-05-10T04:21:26;13.73;;;6.50;;
33862;SDS011;20158;51.436;-2.742;2023-05-10T04:23:52;10.77;;;6.25;;
33862;SDS011;20158;51.436;-2.742;2023-05-10T04:26:18;16.60;;;6.10;;
33862;SDS011;20158;51.436;-2.742;2023-05-10T04:28:44;22.48;;;9.82;;
33862;SDS011;20158;51.436;-2.742;2023-05-10T04:31:10;17.48;;;7.05;;
33862;SDS011;20158;51.436;-2.742;2023-05-10T04:33:36;11.32;;;6.95;;
33862;SDS011;20158;51.436;-2.742;2023-05-10T04:36:02;17.98;;;8.18;;
33862;SDS011;20158;51.436;-2.742;2023-05-10T04:38:29;14.80;;;7.65;;
33862;SDS011;20158;51.436;-2.742;2023-05-10T04:41:03;14.20;;;7.40;;
33862;SDS011;20158;51.436;-2.742;2023-05-10T04:43:33;17.40;;;8.65;;
33862;SDS011;20158;51.436;-2.742;2023-05-10T04:45:59;15.70;;;7.85;;
33862;SDS011;20158;51.436;-2.742;2023-05-10T04:48:25;12.50;;;8.18;;
33862;SDS011;20158;51.436;-2.742;2023-05-10T04:50:50;19.15;;;8.13;;
33862;SDS011;20158;51.436;-2.742;2023-05-10T04:53:17;16.88;;;8.68;;
33862;SDS011;20158;51.436;-2.742;2023-05-10T04:55:43;14.77;;;8.43;;
33862;SDS011;20158;51.436;-2.742;2023-05-10T04:58:09;14.82;;;8.65;;
33862;SDS011;20158;51.436;-2.742;2023-05-10T05:00:35;13.90;;;8.25;;
33862;SDS011;20158;51.436;-2.742;2023-05-10T05:03:01;12.73;;;8.43;;
33862;SDS011;20158;51.436;-2.742;2023-05-10T05:05:27;17.48;;;9.27;;
33862;SDS011;20158;51.436;-2.742;2023-05-10T05:07:53;15.98;;;8.18;;
33862;SDS011;20158;51.436;-2.742;2023-05-10T05:10:18;15.02;;;8.27;;
33862;SDS011;20158;51.436;-2.742;2023-05-10T05:12:44;16.65;;;9.00;;
33862;SDS011;20158;51.436;-2.742;2023-05-10T05:15:11;15.75;;;9.10;;
33862;SDS011;20158;51.436;-2.742;2023-05-10T05:17:37;14.90;;;9.23;;
33862;SDS011;20158;51.436;-2.742;2023-05-10T05:20:03;16.42;;;9.88;;
33862;SDS011;20158;51.436;-2.742;2023-05-10T05:22:29;18.20;;;9.70;;
33862;SDS011;20158;51.436;-2.742;2023-05-10T05:24:55;16.98;;;8.63;;
33862;SDS011;20158;51.436;-2.742;2023-05-10T05:27:23;16.40;;;7.78;;
33862;SDS011;20158;51.436;-2.742;2023-05-10T05:29:52;18.73;;;9.15;;
33862;SDS011;20158;51.436;-2.742;2023-05-10T05:32:19;11.73;;;7.70;;
33862;SDS011;20158;51.436;-2.742;2023-05-10T05:34:46;17.73;;;8.32;;
33862;SDS011;20158;51.436;-2.742;2023-05-10T05:37:15;12.82;;;7.03;;
33862;SDS011;20158;51.436;-2.742;2023-05-10T05:39:42;13.93;;;8.32;;
33862;SDS011;20158;51.436;-2.742;2023-05-10T05:42:09;17.25;;;7.35;;
33862;SDS011;20158;51.436;-2.742;2023-05-10T05:44:35;16.40;;;7.35;;
33862;SDS011;20158;51.436;-2.742;2023-05-10T05:47:01;10.82;;;6.28;;
33862;SDS011;20158;51.436;-2.742;2023-05-10T05:49:27;10.70;;;6.07;;
33862;SDS011;20158;51.436;-2.742;2023-05-10T05:51:54;15.88;;;5.57;;
33862;SDS011;20158;51.436;-2.742;2023-05-10T05:54:20;9.57;;;4.72;;
33862;SDS011;20158;51.436;-2.742;2023-05-10T05:56:45;13.93;;;5.90;;
33862;SDS011;20158;51.436;-2.742;2023-05-10T05:59:11;11.02;;;4.72;;
33862;SDS011;20158;51.436;-2.742;2023-05-10T06:01:37;9.25;;;4.18;;
33862;SDS011;20158;51.436;-2.742;2023-05-10T06:04:03;8.52;;;5.35;;
33862;SDS011;20158;51.436;-2.742;2023-05-10T06:06:29;11.40;;;4.25;;
33862;SDS011;20158;51.436;-2.742;2023-05-10T06:08:55;10.95;;;5.00;;
33862;SDS011;20158;51.436;-2.742;2023-05-10T06:11:20;11.23;;;5.47;;
33862;SDS011;20158;51.436;-2.742;2023-05-10T06:13:47;10.13;;;3.67;;
33862;SDS011;20158;51.436;-2.742;2023-05-10T06:16:13;12.98;;;4.72;;
33862;SDS011;20158;51.436;-2.742;2023-05-10T06:18:39;10.15;;;4.35;;
33862;SDS011;20158;51.436;-2.742;2023-05-10T06:21:05;14.05;;;5.20;;
33862;SDS011;20158;51.436;-2.742;2023-05-10T06:23:31;9.35;;;3.80;;
33862;SDS011;20158;51.436;-2.742;2023-05-10T06:25:57;9.63;;;3.63;;
33862;SDS011;20158;51.436;-2.742;2023-05-10T06:28:23;13.05;;;4.20;;
33862;SDS011;20158;51.436;-2.742;2023-05-10T06:30:49;14.55;;;3.80;;
33862;SDS011;20158;51.436;-2.742;2023-05-10T06:33:15;11.55;;;3.58;;
33862;SDS011;20158;51.436;-2.742;2023-05-10T06:35:41;9.60;;;3.30;;
33862;SDS011;20158;51.436;-2.742;2023-05-10T06:38:07;10.07;;;3.25;;
33862;SDS011;20158;51.436;-2.742;2023-05-10T06:40:33;15.55;;;3.90;;
33862;SDS011;20158;51.436;-2.742;2023-05-10T06:42:59;12.40;;;4.35;;
33862;SDS011;20158;51.436;-2.742;2023-05-10T06:45:24;10.57;;;3.72;;
33862;SDS011;20158;51.436;-2.742;2023-05-10T06:47:50;11.23;;;3.53;;
33862;SDS011;20158;51.436;-2.742;2023-05-10T06:50:16;11.18;;;4.00;;
33862;SDS011;20158;51.436;-2.742;2023-05-10T06:52:42;10.02;;;3.25;;
33862;SDS011;20158;51.436;-2.742;2023-05-10T06:55:08;11.73;;;3.25;;
33862;SDS011;20158;51.436;-2.742;2023-05-10T06:57:35;7.90;;;3.40;;
33862;SDS011;20158;51.436;-2.742;2023-05-10T07:00:01;10.73;;;3.42;;
33862;SDS011;20158;51.436;-2.742;2023-05-10T07:02:29;10.93;;;3.22;;
33862;SDS011;20158;51.436;-2.742;2023-05-10T07:04:55;10.20;;;3.33;;
33862;SDS011;20158;51.436;-2.742;2023-05-10T07:07:21;8.32;;;3.15;;
33862;SDS011;20158;51.436;-2.742;2023-05-10T07:09:47;10.23;;;3.40;;
33862;SDS011;20158;51.436;-2.742;2023-05-10T07:12:14;9.43;;;3.22;;
33862;SDS011;20158;51.436;-2.742;2023-05-10T07:14:40;10.60;;;2.78;;
33862;SDS011;20158;51.436;-2.742;2023-05-10T07:17:08;9.20;;;3.55;;
33862;SDS011;20158;51.436;-2.742;2023-05-10T07:19:34;7.35;;;3.28;;
33862;SDS011;20158;51.436;-2.742;2023-05-10T07:22:00;9.10;;;3.15;;
33862;SDS011;20158;51.436;-2.742;2023-05-10T07:24:27;10.07;;;3.17;;
33862;SDS011;20158;51.436;-2.742;2023-05-10T07:26:53;11.95;;;4.25;;
33862;SDS011;20158;51.436;-2.742;2023-05-10T07:29:19;8.07;;;2.88;;
33862;SDS011;20158;51.436;-2.742;2023-05-10T07:31:45;6.45;;;2.75;;
33862;SDS011;20158;51.436;-2.742;2023-05-10T07:34:11;10.18;;;3.08;;
33862;SDS011;20158;51.436;-2.742;2023-05-10T07:36:37;8.80;;;3.38;;
33862;SDS011;20158;51.436;-2.742;2023-05-10T07:39:03;8.50;;;2.85;;
33862;SDS011;20158;51.436;-2.742;2023-05-10T07:41:30;12.90;;;4.35;;
33862;SDS011;20158;51.436;-2.742;2023-05-10T07:43:55;14.45;;;4.32;;
33862;SDS011;20158;51.436;-2.742;2023-05-10T07:46:21;9.35;;;3.20;;
33862;SDS011;20158;51.436;-2.742;2023-05-10T07:48:47;8.18;;;3.20;;
33862;SDS011;20158;51.436;-2.742;2023-05-10T07:51:13;12.77;;;3.25;;
33862;SDS011;20158;51.436;-2.742;2023-05-10T07:53:40;15.63;;;4.22;;
33862;SDS011;20158;51.436;-2.742;2023-05-10T07:56:22;8.73;;;2.78;;
33862;SDS011;20158;51.436;-2.742;2023-05-10T07:59:03;10.98;;;3.50;;
33862;SDS011;20158;51.436;-2.742;2023-05-10T08:01:31;10.93;;;3.20;;
33862;SDS011;20158;51.436;-2.742;2023-05-10T08:03:58;10.30;;;3.35;;
33862;SDS011;20158;51.436;-2.742;2023-05-10T08:06:25;6.20;;;2.38;;
33862;SDS011;20158;51.436;-2.742;2023-05-10T08:08:54;12.43;;;3.45;;
33862;SDS011;20158;51.436;-2.742;2023-05-10T08:11:20;10.70;;;2.83;;
33862;SDS011;20158;51.436;-2.742;2023-05-10T08:13:47;11.82;;;4.03;;
33862;SDS011;20158;51.436;-2.742;2023-05-10T08:16:14;12.30;;;3.45;;
33862;SDS011;20158;51.436;-2.742;2023-05-10T08:18:40;12.05;;;3.60;;
33862;SDS011;20158;51.436;-2.742;2023-05-10T08:21:06;8.02;;;2.17;;
33862;SDS011;20158;51.436;-2.742;2023-05-10T08:23:32;6.45;;;2.55;;
33862;SDS011;20158;51.436;-2.742;2023-05-10T08:25:58;7.63;;;3.00;;
33862;SDS011;20158;51.436;-2.742;2023-05-10T08:28:25;5.15;;;2.03;;
33862;SDS011;20158;51.436;-2.742;2023-05-10T08:30:51;6.72;;;2.42;;
33862;SDS011;20158;51.436;-2.742;2023-05-10T08:33:17;5.72;;;1.83;;
33862;SDS011;20158;51.436;-2.742;2023-05-10T08:35:44;5.20;;;1.73;;
33862;SDS011;20158;51.436;-2.742;2023-05-10T08:38:10;8.18;;;2.15;;
33862;SDS011;20158;51.436;-2.742;2023-05-10T08:40:42;7.47;;;2.25;;
33862;SDS011;20158;51.436;-2.742;2023-05-10T08:43:10;8.05;;;2.63;;
33862;SDS011;20158;51.436;-2.742;2023-05-10T08:45:41;8.48;;;2.55;;
33862;SDS011;20158;51.436;-2.742;2023-05-10T08:48:09;6.15;;;2.92;;
33862;SDS011;20158;51.436;-2.742;2023-05-10T08:50:36;7.32;;;2.75;;
33862;SDS011;20158;51.436;-2.742;2023-05-10T08:53:04;7.60;;;2.35;;
33862;SDS011;20158;51.436;-2.742;2023-05-10T08:55:32;9.63;;;3.47;;
33862;SDS011;20158;51.436;-2.742;2023-05-10T08:58:01;6.63;;;3.00;;
33862;SDS011;20158;51.436;-2.742;2023-05-10T09:00:28;6.57;;;2.63;;
33862;SDS011;20158;51.436;-2.742;2023-05-10T09:02:56;6.25;;;2.15;;
33862;SDS011;20158;51.436;-2.742;2023-05-10T09:05:23;10.48;;;3.17;;
33862;SDS011;20158;51.436;-2.742;2023-05-10T09:07:49;12.95;;;3.22;;
33862;SDS011;20158;51.436;-2.742;2023-05-10T09:10:15;6.72;;;2.65;;
33862;SDS011;20158;51.436;-2.742;2023-05-10T09:12:42;11.75;;;3.75;;
33862;SDS011;20158;51.436;-2.742;2023-05-10T09:15:09;7.45;;;2.67;;
33862;SDS011;20158;51.436;-2.742;2023-05-10T09:17:35;7.40;;;2.80;;
33862;SDS011;20158;51.436;-2.742;2023-05-10T09:20:03;7.90;;;3.17;;
33862;SDS011;20158;51.436;-2.742;2023-05-10T09:22:30;7.85;;;2.63;;
33862;SDS011;20158;51.436;-2.742;2023-05-10T09:25:05;9.48;;;2.80;;
33862;SDS011;20158;51.436;-2.742;2023-05-10T09:27:36;8.55;;;2.63;;
33862;SDS011;20158;51.436;-2.742;2023-05-10T09:30:04;7.72;;;2.47;;
33862;SDS011;20158;51.436;-2.742;2023-05-10T09:32:37;9.68;;;3.75;;
33862;SDS011;20158;51.436;-2.742;2023-05-10T09:35:11;10.88;;;2.92;;
33862;SDS011;20158;51.436;-2.742;2023-05-10T09:37:45;10.30;;;3.00;;
33862;SDS011;20158;51.436;-2.742;2023-05-10T09:40:14;8.40;;;2.72;;
33862;SDS011;20158;51.436;-2.742;2023-05-10T09:42:42;9.88;;;3.78;;
33862;SDS011;20158;51.436;-2.742;2023-05-10T09:45:17;12.07;;;3.22;;
33862;SDS011;20158;51.436;-2.742;2023-05-10T09:47:42;9.85;;;3.00;;
33862;SDS011;20158;51.436;-2.742;2023-05-10T09:50:09;7.38;;;2.67;;
33862;SDS011;20158;51.436;-2.742;2023-05-10T09:55:18;11.02;;;3.03;;
33862;SDS011;20158;51.436;-2.742;2023-05-10T09:57:49;8.57;;;2.70;;
33862;SDS011;20158;51.436;-2.742;2023-05-10T10:00:23;10.07;;;2.83;;
33862;SDS011;20158;51.436;-2.742;2023-05-10T10:02:58;10.05;;;3.13;;
33862;SDS011;20158;51.436;-2.742;2023-05-10T10:05:28;9.80;;;2.63;;
33862;SDS011;20158;51.436;-2.742;2023-05-10T10:07:58;9.18;;;2.92;;
33862;SDS011;20158;51.436;-2.742;2023-05-10T10:10:25;9.90;;;3.45;;
33862;SDS011;20158;51.436;-2.742;2023-05-10T10:12:52;9.35;;;3.15;;
33862;SDS011;20158;51.436;-2.742;2023-05-10T10:15:22;11.93;;;3.13;;
33862;SDS011;20158;51.436;-2.742;2023-05-10T10:17:49;9.82;;;3.22;;
33862;SDS011;20158;51.436;-2.742;2023-05-10T10:20:15;18.25;;;4.35;;
33862;SDS011;20158;51.436;-2.742;2023-05-10T10:22:42;11.93;;;3.47;;
33862;SDS011;20158;51.436;-2.742;2023-05-10T10:25:12;10.10;;;3.45;;
33862;SDS011;20158;51.436;-2.742;2023-05-10T10:27:45;10.18;;;2.88;;
33862;SDS011;20158;51.436;-2.742;2023-05-10T10:35:38;12.35;;;3.70;;
33862;SDS011;20158;51.436;-2.742;2023-05-10T10:38:04;9.88;;;3.70;;
33862;SDS011;20158;51.436;-2.742;2023-05-10T10:40:33;7.85;;;2.80;;
33862;SDS011;20158;51.436;-2.742;2023-05-10T10:49:08;6.78;;;2.47;;
33862;SDS011;20158;51.436;-2.742;2023-05-10T10:51:38;8.45;;;2.67;;
33862;SDS011;20158;51.436;-2.742;2023-05-10T10:54:11;6.65;;;2.95;;
33862;SDS011;20158;51.436;-2.742;2023-05-10T10:56:37;8.45;;;3.17;;
33862;SDS011;20158;51.436;-2.742;2023-05-10T10:59:03;11.35;;;3.05;;
33862;SDS011;20158;51.436;-2.742;2023-05-10T11:01:33;9.43;;;2.75;;
33862;SDS011;20158;51.436;-2.742;2023-05-10T11:06:31;8.27;;;3.33;;
33862;SDS011;20158;51.436;-2.742;2023-05-10T11:08:58;8.85;;;3.13;;
33862;SDS011;20158;51.436;-2.742;2023-05-10T11:11:35;8.35;;;3.20;;
33862;SDS011;20158;51.436;-2.742;2023-05-10T11:14:13;7.07;;;2.65;;
33862;SDS011;20158;51.436;-2.742;2023-05-10T11:16:41;6.40;;;3.00;;
33862;SDS011;20158;51.436;-2.742;2023-05-10T11:19:09;7.93;;;2.78;;
33862;SDS011;20158;51.436;-2.742;2023-05-10T11:21:47;7.30;;;2.53;;
33862;SDS011;20158;51.436;-2.742;2023-05-10T11:24:20;7.25;;;2.30;;
33862;SDS011;20158;51.436;-2.742;2023-05-10T11:26:49;5.72;;;2.45;;
33862;SDS011;20158;51.436;-2.742;2023-05-10T11:29:16;8.00;;;2.72;;
33862;SDS011;20158;51.436;-2.742;2023-05-10T11:31:46;7.85;;;2.70;;
33862;SDS011;20158;51.436;-2.742;2023-05-10T11:34:29;5.90;;;2.10;;
33862;SDS011;20158;51.436;-2.742;2023-05-10T11:36:59;5.18;;;2.60;;
33862;SDS011;20158;51.436;-2.742;2023-05-10T11:39:26;7.53;;;2.38;;
33862;SDS011;20158;51.436;-2.742;2023-05-10T11:41:53;5.78;;;2.63;;
33862;SDS011;20158;51.436;-2.742;2023-05-10T11:44:19;6.78;;;2.03;;
33862;SDS011;20158;51.436;-2.742;2023-05-10T11:46:44;5.10;;;1.73;;
33862;SDS011;20158;51.436;-2.742;2023-05-10T11:49:10;4.22;;;1.90;;
33862;SDS011;20158;51.436;-2.742;2023-05-10T11:51:38;5.65;;;2.22;;
33862;SDS011;20158;51.436;-2.742;2023-05-10T11:54:05;5.82;;;2.45;;
33862;SDS011;20158;51.436;-2.742;2023-05-10T11:56:33;5.53;;;2.05;;
33862;SDS011;20158;51.436;-2.742;2023-05-10T11:59:00;6.13;;;2.42;;
33862;SDS011;20158;51.436;-2.742;2023-05-10T12:01:27;4.40;;;1.90;;
33862;SDS011;20158;51.436;-2.742;2023-05-10T12:03:55;3.65;;;1.58;;
33862;SDS011;20158;51.436;-2.742;2023-05-10T12:06:26;4.35;;;2.05;;
33862;SDS011;20158;51.436;-2.742;2023-05-10T12:08:53;4.43;;;1.73;;
33862;SDS011;20158;51.436;-2.742;2023-05-10T12:11:19;9.63;;;2.28;;
33862;SDS011;20158;51.436;-2.742;2023-05-10T12:13:46;6.70;;;1.98;;
33862;SDS011;20158;51.436;-2.742;2023-05-10T12:16:16;5.28;;;1.98;;
33862;SDS011;20158;51.436;-2.742;2023-05-10T12:18:43;5.68;;;2.15;;
33862;SDS011;20158;51.436;-2.742;2023-05-10T12:21:12;3.03;;;1.48;;
33862;SDS011;20158;51.436;-2.742;2023-05-10T12:23:38;7.55;;;2.53;;
33862;SDS011;20158;51.436;-2.742;2023-05-10T12:26:05;4.60;;;1.58;;
33862;SDS011;20158;51.436;-2.742;2023-05-10T12:28:32;7.18;;;2.38;;
33862;SDS011;20158;51.436;-2.742;2023-05-10T12:30:58;2.83;;;1.30;;
33862;SDS011;20158;51.436;-2.742;2023-05-10T12:33:25;5.72;;;1.98;;
33862;SDS011;20158;51.436;-2.742;2023-05-10T12:35:52;5.18;;;2.08;;
33862;SDS011;20158;51.436;-2.742;2023-05-10T12:38:33;6.00;;;1.88;;
33862;SDS011;20158;51.436;-2.742;2023-05-10T12:41:10;4.13;;;1.70;;
33862;SDS011;20158;51.436;-2.742;2023-05-10T12:43:37;4.93;;;2.55;;
33862;SDS011;20158;51.436;-2.742;2023-05-10T12:46:07;5.55;;;1.85;;
33862;SDS011;20158;51.436;-2.742;2023-05-10T12:48:34;3.22;;;1.52;;
33862;SDS011;20158;51.436;-2.742;2023-05-10T12:51:01;3.83;;;2.13;;
33862;SDS011;20158;51.436;-2.742;2023-05-10T12:53:28;3.03;;;1.45;;
33862;SDS011;20158;51.436;-2.742;2023-05-10T12:55:54;4.18;;;1.35;;
33862;SDS011;20158;51.436;-2.742;2023-05-10T12:58:20;3.30;;;1.25;;
33862;SDS011;20158;51.436;-2.742;2023-05-10T13:00:46;3.45;;;1.50;;
33862;SDS011;20158;51.436;-2.742;2023-05-10T13:03:12;3.45;;;1.48;;
33862;SDS011;20158;51.436;-2.742;2023-05-10T13:05:38;3.33;;;1.38;;
33862;SDS011;20158;51.436;-2.742;2023-05-10T13:08:04;4.07;;;1.77;;
33862;SDS011;20158;51.436;-2.742;2023-05-10T13:10:30;4.68;;;1.75;;
33862;SDS011;20158;51.436;-2.742;2023-05-10T13:12:57;3.92;;;1.42;;
33862;SDS011;20158;51.436;-2.742;2023-05-10T13:15:24;2.42;;;1.33;;
33862;SDS011;20158;51.436;-2.742;2023-05-10T13:17:50;2.92;;;1.52;;
33862;SDS011;20158;51.436;-2.742;2023-05-10T13:20:16;3.38;;;1.50;;
33862;SDS011;20158;51.436;-2.742;2023-05-10T13:22:43;3.22;;;1.63;;
33862;SDS011;20158;51.436;-2.742;2023-05-10T13:25:09;2.15;;;1.00;;
33862;SDS011;20158;51.436;-2.742;2023-05-10T13:27:36;4.70;;;1.50;;
33862;SDS011;20158;51.436;-2.742;2023-05-10T13:30:03;4.03;;;1.38;;
33862;SDS011;20158;51.436;-2.742;2023-05-10T13:32:29;2.60;;;1.40;;
33862;SDS011;20158;51.436;-2.742;2023-05-10T13:34:55;1.60;;;1.00;;
33862;SDS011;20158;51.436;-2.742;2023-05-10T13:37:21;2.67;;;1.40;;
33862;SDS011;20158;51.436;-2.742;2023-05-10T13:39:47;3.58;;;1.27;;
33862;SDS011;20158;51.436;-2.742;2023-05-10T13:42:13;3.30;;;1.38;;
33862;SDS011;20158;51.436;-2.742;2023-05-10T13:44:39;5.15;;;1.50;;
33862;SDS011;20158;51.436;-2.742;2023-05-10T13:47:05;5.55;;;1.65;;
33862;SDS011;20158;51.436;-2.742;2023-05-10T13:49:32;4.03;;;1.55;;
33862;SDS011;20158;51.436;-2.742;2023-05-10T13:51:59;2.80;;;1.35;;
33862;SDS011;20158;51.436;-2.742;2023-05-10T13:54:34;3.15;;;1.60;;
33862;SDS011;20158;51.436;-2.742;2023-05-10T13:57:01;6.53;;;1.65;;
33862;SDS011;20158;51.436;-2.742;2023-05-10T13:59:27;1.92;;;1.30;;
33862;SDS011;20158;51.436;-2.742;2023-05-10T14:01:53;2.75;;;1.40;;
33862;SDS011;20158;51.436;-2.742;2023-05-10T14:04:19;2.83;;;1.60;;
33862;SDS011;20158;51.436;-2.742;2023-05-10T14:06:45;3.70;;;1.73;;
33862;SDS011;20158;51.436;-2.742;2023-05-10T14:09:11;2.95;;;1.70;;
33862;SDS011;20158;51.436;-2.742;2023-05-10T14:11:38;2.88;;;1.50;;
33862;SDS011;20158;51.436;-2.742;2023-05-10T14:14:08;5.63;;;1.90;;
33862;SDS011;20158;51.436;-2.742;2023-05-10T14:16:34;2.47;;;1.48;;
33862;SDS011;20158;51.436;-2.742;2023-05-10T14:19:00;2.45;;;1.30;;
33862;SDS011;20158;51.436;-2.742;2023-05-10T14:21:26;2.38;;;0.90;;
33862;SDS011;20158;51.436;-2.742;2023-05-10T14:23:54;1.83;;;1.17;;
33862;SDS011;20158;51.436;-2.742;2023-05-10T14:26:20;3.45;;;1.33;;
33862;SDS011;20158;51.436;-2.742;2023-05-10T14:28:47;3.75;;;1.60;;
33862;SDS011;20158;51.436;-2.742;2023-05-10T14:31:13;2.97;;;1.25;;
33862;SDS011;20158;51.436;-2.742;2023-05-10T14:33:40;3.53;;;1.50;;
33862;SDS011;20158;51.436;-2.742;2023-05-10T14:36:06;3.17;;;1.52;;
33862;SDS011;20158;51.436;-2.742;2023-05-10T14:38:32;2.70;;;1.30;;
33862;SDS011;20158;51.436;-2.742;2023-05-10T14:40:58;2.95;;;1.40;;
33862;SDS011;20158;51.436;-2.742;2023-05-10T14:43:27;2.88;;;1.00;;
33862;SDS011;20158;51.436;-2.742;2023-05-10T14:45:53;3.80;;;1.80;;
33862;SDS011;20158;51.436;-2.742;2023-05-10T14:48:19;3.70;;;1.40;;
33862;SDS011;20158;51.436;-2.742;2023-05-10T14:50:46;2.15;;;1.02;;
33862;SDS011;20158;51.436;-2.742;2023-05-10T14:53:12;5.22;;;1.63;;
33862;SDS011;20158;51.436;-2.742;2023-05-10T14:55:38;6.00;;;1.63;;
33862;SDS011;20158;51.436;-2.742;2023-05-10T14:58:04;2.75;;;1.48;;
33862;SDS011;20158;51.436;-2.742;2023-05-10T15:00:30;3.85;;;1.50;;
33862;SDS011;20158;51.436;-2.742;2023-05-10T15:03:05;2.25;;;0.88;;
33862;SDS011;20158;51.436;-2.742;2023-05-10T15:05:34;3.58;;;1.10;;
33862;SDS011;20158;51.436;-2.742;2023-05-10T15:08:05;2.28;;;0.90;;
33862;SDS011;20158;51.436;-2.742;2023-05-10T15:10:31;3.50;;;1.17;;